Solea — DBFI — position and weather

sailwx.info

Track history (hours):
 
Tides and Currents Weather Stations Pressure Air Temp Water Temp Dewpoint Dewpoint Depression Visibility Wind Speed Wind Dir Waves Ship Positions

Oceanographic research ship Solea (Germany)

Detailed information on ship capabilities available from University of Delaware's Ocean Information Center.

Last reported at 2017-Apr-29 11:23 UTC. Time now 2017-Apr-30 05:11 UTC.
Position N 54°45' E 007°00'.

Length 72 m; draft 5.2 m.

Type: Law enforcement. MMSI: 218692000.

Date/timePositionNaut miles runAvg speedWind from/ knotsBaromVisibWave heightAir tempDewpointWater temp
2017-Apr-29 11:23N 54°45' E 007°00'411.4
2017-Apr-29 11:00N 54°48' E 006°54'611.3
2017-Apr-29 10:30N 54°52' E 006°47'611.0
2017-Apr-29 09:55N 54°57' E 006°40'14 0.7
2017-Apr-28 14:00N 54°46' E 006°56'510.1
2017-Apr-28 13:30N 54°50' E 006°50'5 9.9
2017-Apr-28 13:00N 54°53' E 006°44'0 0.1
2017-Apr-28 11:21N 54°53' E 006°44'1 2.7
2017-Apr-28 10:57N 54°53' E 006°46'3 7.0
2017-Apr-28 10:29N 54°56' E 006°43'15 1.2
2017-Apr-27 22:13N 55°08' E 006°27'0 0.8
2017-Apr-27 22:00N 55°08' E 006°27'0 0.9
2017-Apr-27 21:30N 55°08' E 006°26'1 1.0
2017-Apr-27 21:00N 55°08' E 006°25'1 1.0
2017-Apr-27 20:29N 55°08' E 006°24'0 0.7
2017-Apr-27 20:00N 55°08' E 006°24'3 6.4
2017-Apr-27 19:30N 55°11' E 006°22'2 4.7
2017-Apr-27 19:00N 55°13' E 006°21'4 6.1
2017-Apr-27 18:25N 55°17' E 006°20'10 0.3
2017-Apr-26 05:50N 55°19' E 006°02'2 5.8
2017-Apr-26 05:30N 55°20' E 006°02'2 4.1
2017-Apr-26 05:00N 55°22' E 006°01'2 3.8
2017-Apr-26 04:29N 55°24' E 006°00'1 2.0
2017-Apr-26 03:59N 55°25' E 006°02'2 3.1
2017-Apr-26 03:20N 55°24' E 006°04'  
Track history (hours):
 
Tides and Currents Weather Stations Pressure Air Temp Water Temp Dewpoint Dewpoint Depression Visibility Wind Speed Wind Dir Waves Ship Positions

Oceanographic research ship Solea (Germany)

Detailed information on ship capabilities available from University of Delaware's Ocean Information Center.

Last reported at 2017-Apr-29 11:23 UTC. Time now 2017-Apr-30 05:11 UTC.
Position N 54°45' E 007°00'.

Length 72 m; draft 5.2 m.

Type: Law enforcement. MMSI: 218692000.

Date/timePositionNaut miles runAvg speedWind from/ knotsBaromVisibWave heightAir tempDewpointWater temp
2017-Apr-29 11:23N 54°45' E 007°00'411.4
2017-Apr-29 11:00N 54°48' E 006°54'611.3
2017-Apr-29 10:30N 54°52' E 006°47'611.0
2017-Apr-29 09:55N 54°57' E 006°40'14 0.7
2017-Apr-28 14:00N 54°46' E 006°56'510.1
2017-Apr-28 13:30N 54°50' E 006°50'5 9.9
2017-Apr-28 13:00N 54°53' E 006°44'0 0.1
2017-Apr-28 11:21N 54°53' E 006°44'1 2.7
2017-Apr-28 10:57N 54°53' E 006°46'3 7.0
2017-Apr-28 10:29N 54°56' E 006°43'15 1.2
2017-Apr-27 22:13N 55°08' E 006°27'0 0.8
2017-Apr-27 22:00N 55°08' E 006°27'0 0.9
2017-Apr-27 21:30N 55°08' E 006°26'1 1.0
2017-Apr-27 21:00N 55°08' E 006°25'1 1.0
2017-Apr-27 20:29N 55°08' E 006°24'0 0.7
2017-Apr-27 20:00N 55°08' E 006°24'3 6.4
2017-Apr-27 19:30N 55°11' E 006°22'2 4.7
2017-Apr-27 19:00N 55°13' E 006°21'4 6.1
2017-Apr-27 18:25N 55°17' E 006°20'10 0.3
2017-Apr-26 05:50N 55°19' E 006°02'2 5.8
2017-Apr-26 05:30N 55°20' E 006°02'2 4.1
2017-Apr-26 05:00N 55°22' E 006°01'2 3.8
2017-Apr-26 04:29N 55°24' E 006°00'1 2.0
2017-Apr-26 03:59N 55°25' E 006°02'2 3.1
2017-Apr-26 03:20N 55°24' E 006°04'  

Dump ship's entire track history